Time;durP1;ratioP1;P1;durP2;ratioP2;P2;SDS_P1;SDS_P2;PMS_P1;PMS_P2;Temp;Humidity;BMP_temperature;BMP_pressure;BME280_temperature;BME280_humidity;BME280_pressure;Samples;Min_cycle;Max_cycle;Signal;HPM_P1;HPM_P2
2022/09/21 00:00:39;;;;;;;27.20;10.25;;;;;;;;;;4953422;29;20030;-49
2022/09/21 00:03:06;;;;;;;31.00;11.18;;;;;;;;;;4953446;29;20023;-51
2022/09/21 00:05:34;;;;;;;30.25;11.43;;;;;;;;;;4953778;29;20477;-51
2022/09/21 00:08:01;;;;;;;28.58;11.07;;;;;;;;;;4952912;29;20529;-54
2022/09/21 00:10:29;;;;;;;25.23;11.30;;;;;;;;;;4953105;29;20500;-53
2022/09/21 00:12:56;;;;;;;30.58;11.68;;;;;;;;;;4951071;29;20434;-56
2022/09/21 00:15:24;;;;;;;28.88;12.10;;;;;;;;;;4953966;29;20129;-55
2022/09/21 00:17:54;;;;;;;29.52;12.27;;;;;;;;;;4952254;29;20496;-55
2022/09/21 00:20:21;;;;;;;33.17;14.43;;;;;;;;;;4952084;29;20035;-55
2022/09/21 00:22:49;;;;;;;38.40;18.42;;;;;;;;;;4943091;29;20139;-58
2022/09/21 00:25:19;;;;;;;43.78;20.45;;;;;;;;;;4929437;29;20031;-58
2022/09/21 00:27:48;;;;;;;36.50;19.92;;;;;;;;;;4925943;29;20039;-55
2022/09/21 00:30:15;;;;;;;41.40;20.27;;;;;;;;;;4933184;29;20062;-56
2022/09/21 00:32:42;;;;;;;42.90;22.10;;;;;;;;;;4927805;29;20102;-50
2022/09/21 00:35:09;;;;;;;38.20;22.20;;;;;;;;;;4930930;29;20569;-53
2022/09/21 00:37:36;;;;;;;39.03;21.40;;;;;;;;;;4927736;29;20047;-56
2022/09/21 00:40:04;;;;;;;39.92;23.55;;;;;;;;;;4930814;29;20027;-56
2022/09/21 00:42:33;;;;;;;42.80;23.73;;;;;;;;;;4923279;29;20478;-53
2022/09/21 00:45:00;;;;;;;41.10;24.10;;;;;;;;;;4921836;29;20031;-53
2022/09/21 00:47:38;;;;;;;43.63;24.48;;;;;;;;;;4924505;29;20031;-53
2022/09/21 00:50:14;;;;;;;43.67;24.48;;;;;;;;;;4921832;29;20035;-52
2022/09/21 00:52:47;;;;;;;45.33;24.35;;;;;;;;;;4922672;29;20525;-55
2022/09/21 00:55:14;;;;;;;40.55;22.58;;;;;;;;;;4919080;29;20442;-56
2022/09/21 00:57:41;;;;;;;45.58;24.10;;;;;;;;;;4918847;29;20036;-55
2022/09/21 01:00:09;;;;;;;43.67;24.50;;;;;;;;;;4932891;29;20036;-54
2022/09/21 01:02:37;;;;;;;45.13;24.92;;;;;;;;;;4917991;29;20497;-54
2022/09/21 01:05:08;;;;;;;51.45;26.08;;;;;;;;;;4919361;29;20036;-53
2022/09/21 01:07:37;;;;;;;51.90;26.02;;;;;;;;;;4918751;29;20020;-54
2022/09/21 01:10:08;;;;;;;49.85;25.27;;;;;;;;;;4919195;29;20060;-53
2022/09/21 01:12:54;;;;;;;54.25;25.83;;;;;;;;;;4923476;29;20036;-51
2022/09/21 01:15:39;;;;;;;46.83;25.40;;;;;;;;;;4919461;29;20394;-53
2022/09/21 01:18:12;;;;;;;44.97;25.70;;;;;;;;;;4918537;29;20538;-49
2022/09/21 01:20:45;;;;;;;49.75;25.52;;;;;;;;;;4919090;29;20525;-54
2022/09/21 01:23:12;;;;;;;53.45;25.17;;;;;;;;;;4954685;29;20042;-54
2022/09/21 01:25:57;;;;;;;48.63;24.10;;;;;;;;;;4959881;28;20031;-53
2022/09/21 01:28:29;;;;;;;49.38;24.30;;;;;;;;;;4956448;29;20035;-51
2022/09/21 01:30:58;;;;;;;45.55;23.45;;;;;;;;;;4954871;29;20055;-53
2022/09/21 01:33:29;;;;;;;48.47;22.88;;;;;;;;;;4953984;29;20055;-49
2022/09/21 01:36:04;;;;;;;46.35;22.92;;;;;;;;;;4955459;29;20031;-50
2022/09/21 01:38:37;;;;;;;47.17;21.20;;;;;;;;;;4956512;29;20738;-52
2022/09/21 01:41:06;;;;;;;58.17;22.42;;;;;;;;;;4956570;29;20019;-53
2022/09/21 01:43:38;;;;;;;47.40;22.55;;;;;;;;;;4956203;29;20075;-53
2022/09/21 01:46:07;;;;;;;46.05;20.92;;;;;;;;;;4957580;29;20027;-51
2022/09/21 01:48:37;;;;;;;44.90;20.48;;;;;;;;;;4956578;29;20024;-52
2022/09/21 01:51:07;;;;;;;41.28;20.48;;;;;;;;;;4957225;29;20039;-53
2022/09/21 01:53:39;;;;;;;40.65;18.52;;;;;;;;;;4956414;29;20058;-54
2022/09/21 01:56:12;;;;;;;42.20;19.17;;;;;;;;;;4956867;29;20046;-51
2022/09/21 01:58:42;;;;;;;38.03;18.35;;;;;;;;;;4956526;29;20287;-55
2022/09/21 02:01:10;;;;;;;42.10;17.80;;;;;;;;;;4956497;29;20027;-53
2022/09/21 02:03:40;;;;;;;35.40;16.85;;;;;;;;;;4956094;29;20501;-54
2022/09/21 02:06:08;;;;;;;35.97;16.92;;;;;;;;;;4955988;29;20565;-56
2022/09/21 02:08:36;;;;;;;45.88;16.20;;;;;;;;;;4955258;28;20042;-57
2022/09/21 02:11:04;;;;;;;38.03;15.77;;;;;;;;;;4955743;29;20377;-56
2022/09/21 02:13:33;;;;;;;40.63;16.83;;;;;;;;;;4955948;29;20027;-57
2022/09/21 02:16:13;;;;;;;36.67;15.82;;;;;;;;;;4955968;29;20470;-56
2022/09/21 02:18:56;;;;;;;39.53;15.10;;;;;;;;;;4955333;29;20389;-55
2022/09/21 02:21:30;;;;;;;41.00;15.30;;;;;;;;;;4954849;29;20050;-57
2022/09/21 02:24:08;;;;;;;37.45;14.82;;;;;;;;;;4955099;29;20027;-58
2022/09/21 02:26:58;;;;;;;29.65;14.07;;;;;;;;;;4953868;29;20470;-56
2022/09/21 02:29:47;;;;;;;32.10;15.13;;;;;;;;;;4930147;29;20494;-50
2022/09/21 02:32:27;;;;;;;28.42;13.60;;;;;;;;;;4955971;29;20035;-51
2022/09/21 02:35:00;;;;;;;28.48;13.88;;;;;;;;;;4955178;29;20031;-56
2022/09/21 02:37:42;;;;;;;28.38;12.52;;;;;;;;;;4955580;29;20035;-52
2022/09/21 02:40:18;;;;;;;37.47;13.68;;;;;;;;;;4955504;29;20027;-50
2022/09/21 02:42:46;;;;;;;34.50;12.57;;;;;;;;;;4956429;29;20038;-50
2022/09/21 02:45:16;;;;;;;31.75;12.50;;;;;;;;;;4955658;29;20023;-53
2022/09/21 02:47:47;;;;;;;24.60;11.45;;;;;;;;;;4956165;29;20034;-54
2022/09/21 02:50:17;;;;;;;37.83;12.13;;;;;;;;;;4955429;29;20401;-54
2022/09/21 02:52:45;;;;;;;28.55;11.32;;;;;;;;;;4956005;29;20093;-52
2022/09/21 02:55:13;;;;;;;26.77;12.05;;;;;;;;;;4954501;29;20023;-55
2022/09/21 02:57:41;;;;;;;22.95;10.95;;;;;;;;;;4954881;29;20108;-48
2022/09/21 03:00:08;;;;;;;24.17;10.75;;;;;;;;;;4956043;29;20390;-52
2022/09/21 03:02:42;;;;;;;25.20;10.77;;;;;;;;;;4956257;29;20117;-50
2022/09/21 03:05:10;;;;;;;24.60;10.98;;;;;;;;;;4956301;29;20023;-53
2022/09/21 03:07:38;;;;;;;23.48;10.35;;;;;;;;;;4956110;29;20071;-48
2022/09/21 03:10:07;;;;;;;28.58;11.70;;;;;;;;;;4955728;29;20587;-50
2022/09/21 03:12:34;;;;;;;18.10;9.75;;;;;;;;;;4955994;29;20539;-50
2022/09/21 03:15:01;;;;;;;21.65;10.27;;;;;;;;;;4955053;29;20027;-51
2022/09/21 03:17:28;;;;;;;20.83;10.70;;;;;;;;;;4955131;29;20046;-51
2022/09/21 03:19:55;;;;;;;16.90;9.57;;;;;;;;;;4955230;28;20031;-50
2022/09/21 03:22:23;;;;;;;16.73;9.15;;;;;;;;;;4953306;29;20064;-52
2022/09/21 03:24:50;;;;;;;15.48;9.02;;;;;;;;;;4955691;29;20027;-50
2022/09/21 03:27:18;;;;;;;19.90;9.02;;;;;;;;;;4955681;29;20050;-48
2022/09/21 03:29:45;;;;;;;18.35;9.13;;;;;;;;;;4955688;29;20098;-54
2022/09/21 03:32:13;;;;;;;17.33;8.60;;;;;;;;;;4955671;29;20023;-53
2022/09/21 03:34:40;;;;;;;15.02;8.70;;;;;;;;;;4955697;29;20110;-53
2022/09/21 03:37:08;;;;;;;15.98;8.98;;;;;;;;;;4955384;29;20105;-52
2022/09/21 03:39:35;;;;;;;17.15;8.88;;;;;;;;;;4954274;29;20043;-53
2022/09/21 03:42:03;;;;;;;18.85;8.25;;;;;;;;;;4955351;29;20027;-51
2022/09/21 03:44:30;;;;;;;14.27;8.70;;;;;;;;;;4955337;29;20134;-52
2022/09/21 03:46:57;;;;;;;19.05;8.57;;;;;;;;;;4955337;29;20034;-51
2022/09/21 03:49:24;;;;;;;16.27;8.27;;;;;;;;;;4955375;29;20038;-52
2022/09/21 03:51:51;;;;;;;16.10;8.07;;;;;;;;;;4955076;29;20059;-49
2022/09/21 03:54:18;;;;;;;15.35;8.20;;;;;;;;;;4955288;29;20032;-50
2022/09/21 03:56:45;;;;;;;12.02;7.32;;;;;;;;;;4954896;29;20043;-50
2022/09/21 03:59:12;;;;;;;19.95;8.15;;;;;;;;;;4955213;29;20043;-52
2022/09/21 04:01:38;;;;;;;16.60;7.57;;;;;;;;;;4955093;29;20106;-52
2022/09/21 04:04:05;;;;;;;13.70;7.30;;;;;;;;;;4955095;29;20027;-54
2022/09/21 04:06:32;;;;;;;11.98;7.75;;;;;;;;;;4955126;29;20034;-51
2022/09/21 04:09:01;;;;;;;13.57;7.63;;;;;;;;;;4954841;29;20023;-52
2022/09/21 04:11:31;;;;;;;10.35;6.45;;;;;;;;;;4954804;29;20039;-48
2022/09/21 04:13:58;;;;;;;13.95;7.25;;;;;;;;;;4954943;29;20482;-48
2022/09/21 04:16:26;;;;;;;13.48;6.93;;;;;;;;;;4954889;29;20039;-55
2022/09/21 04:18:53;;;;;;;17.98;6.63;;;;;;;;;;4955051;29;20023;-51
2022/09/21 04:21:23;;;;;;;18.70;7.65;;;;;;;;;;4954774;29;20039;-52
2022/09/21 04:23:50;;;;;;;14.85;7.10;;;;;;;;;;4954971;29;20086;-51
2022/09/21 04:26:21;;;;;;;9.93;6.43;;;;;;;;;;4955022;29;20421;-50
2022/09/21 04:28:49;;;;;;;11.73;6.25;;;;;;;;;;4954861;29;20035;-52
2022/09/21 04:31:16;;;;;;;15.88;6.80;;;;;;;;;;4954067;28;20023;-52
2022/09/21 04:33:43;;;;;;;11.98;6.25;;;;;;;;;;4954786;29;20023;-54
2022/09/21 04:36:10;;;;;;;11.15;6.22;;;;;;;;;;4954704;29;20054;-53
2022/09/21 04:38:37;;;;;;;13.30;6.63;;;;;;;;;;4954799;29;20035;-49
2022/09/21 04:41:04;;;;;;;12.18;5.80;;;;;;;;;;4954523;29;20034;-53
2022/09/21 04:43:31;;;;;;;11.07;6.50;;;;;;;;;;4954797;29;20024;-51
2022/09/21 04:45:58;;;;;;;9.80;5.65;;;;;;;;;;4954769;29;20437;-50
2022/09/21 04:48:25;;;;;;;7.75;5.50;;;;;;;;;;4954701;29;20024;-54
2022/09/21 04:50:52;;;;;;;11.73;5.47;;;;;;;;;;4954583;29;20027;-54
2022/09/21 04:53:19;;;;;;;6.97;4.75;;;;;;;;;;4954579;29;20027;-53
2022/09/21 04:55:46;;;;;;;9.02;5.60;;;;;;;;;;4954551;29;20051;-50
2022/09/21 04:58:13;;;;;;;8.48;5.38;;;;;;;;;;4954547;29;20031;-53
2022/09/21 05:00:40;;;;;;;8.15;5.10;;;;;;;;;;4954501;29;20114;-50
2022/09/21 05:03:07;;;;;;;10.10;5.25;;;;;;;;;;4954564;29;20035;-55
2022/09/21 05:05:34;;;;;;;9.40;5.10;;;;;;;;;;4954278;29;20039;-52
2022/09/21 05:08:01;;;;;;;8.55;4.55;;;;;;;;;;4954524;29;20045;-50
2022/09/21 05:10:28;;;;;;;7.72;4.53;;;;;;;;;;4953064;29;20393;-55
2022/09/21 05:12:55;;;;;;;9.02;4.85;;;;;;;;;;4954455;29;20023;-54
2022/09/21 05:15:22;;;;;;;6.75;4.18;;;;;;;;;;4954436;29;20039;-50
2022/09/21 05:17:49;;;;;;;9.90;4.65;;;;;;;;;;4954307;29;20031;-51
2022/09/21 05:20:16;;;;;;;7.38;4.80;;;;;;;;;;4954265;29;20066;-53
2022/09/21 05:22:42;;;;;;;8.20;4.57;;;;;;;;;;4954208;29;20053;-50
2022/09/21 05:25:10;;;;;;;8.65;4.68;;;;;;;;;;4954361;29;20047;-55
2022/09/21 05:27:37;;;;;;;9.45;4.65;;;;;;;;;;4954276;29;20031;-52
2022/09/21 05:30:05;;;;;;;6.65;4.38;;;;;;;;;;4954134;29;20024;-51
2022/09/21 05:32:44;;;;;;;6.28;4.15;;;;;;;;;;4954242;29;20508;-51
2022/09/21 05:35:11;;;;;;;9.35;4.20;;;;;;;;;;4954272;29;20114;-51
2022/09/21 05:37:47;;;;;;;6.88;4.10;;;;;;;;;;4954204;29;20035;-54
2022/09/21 05:40:14;;;;;;;6.80;3.83;;;;;;;;;;4954100;29;20062;-54
2022/09/21 05:42:42;;;;;;;6.60;4.05;;;;;;;;;;4956156;28;20478;-54
2022/09/21 05:45:13;;;;;;;7.93;4.22;;;;;;;;;;4957772;29;20030;-53
2022/09/21 05:47:44;;;;;;;6.45;4.38;;;;;;;;;;4957830;29;20027;-53
2022/09/21 05:50:29;;;;;;;5.57;3.90;;;;;;;;;;4957675;29;20070;-53
2022/09/21 05:52:56;;;;;;;7.88;3.75;;;;;;;;;;4957692;29;20030;-53
2022/09/21 05:55:32;;;;;;;7.57;3.95;;;;;;;;;;4958021;29;20028;-53
2022/09/21 05:58:21;;;;;;;7.15;3.80;;;;;;;;;;4957465;29;20101;-54
2022/09/21 06:00:57;;;;;;;5.82;3.53;;;;;;;;;;4955393;29;20027;-54
2022/09/21 06:03:24;;;;;;;6.13;3.70;;;;;;;;;;4956634;29;20114;-53
2022/09/21 06:05:51;;;;;;;4.80;3.15;;;;;;;;;;4957501;29;20535;-55
2022/09/21 06:08:18;;;;;;;7.63;3.63;;;;;;;;;;4956155;29;20390;-51
2022/09/21 06:10:45;;;;;;;5.97;3.35;;;;;;;;;;4957242;29;20481;-48
2022/09/21 06:13:12;;;;;;;5.13;3.33;;;;;;;;;;4957256;29;20042;-52
2022/09/21 06:15:40;;;;;;;6.30;3.45;;;;;;;;;;4957275;29;20111;-48
2022/09/21 06:18:08;;;;;;;5.25;3.20;;;;;;;;;;4957140;29;20043;-50
2022/09/21 06:20:35;;;;;;;5.43;3.40;;;;;;;;;;4957111;29;20404;-51
2022/09/21 06:23:03;;;;;;;5.95;3.00;;;;;;;;;;4956924;29;20493;-52
2022/09/21 06:25:30;;;;;;;6.63;3.63;;;;;;;;;;4956538;29;20130;-52
2022/09/21 06:28:07;;;;;;;5.57;3.20;;;;;;;;;;4956800;29;20023;-53
2022/09/21 06:30:34;;;;;;;4.68;2.80;;;;;;;;;;4956954;29;20114;-51
2022/09/21 06:33:02;;;;;;;4.90;3.25;;;;;;;;;;4956929;29;20091;-50
2022/09/21 06:35:29;;;;;;;4.15;3.08;;;;;;;;;;4956938;29;20028;-48
2022/09/21 06:38:00;;;;;;;4.10;2.78;;;;;;;;;;4956805;29;20500;-50
2022/09/21 06:40:28;;;;;;;5.05;3.05;;;;;;;;;;4956757;29;20027;-51
2022/09/21 06:43:01;;;;;;;4.47;3.10;;;;;;;;;;4956782;29;20023;-53
2022/09/21 06:45:29;;;;;;;3.97;2.92;;;;;;;;;;4956725;29;20055;-51
2022/09/21 06:47:56;;;;;;;3.78;2.83;;;;;;;;;;4956725;29;20038;-52
2022/09/21 06:50:24;;;;;;;5.05;3.00;;;;;;;;;;4956587;29;20024;-52
2022/09/21 06:52:51;;;;;;;4.15;2.88;;;;;;;;;;4956263;28;20566;-52
2022/09/21 06:55:18;;;;;;;3.78;2.42;;;;;;;;;;4955922;29;20027;-52
2022/09/21 06:57:45;;;;;;;4.93;3.08;;;;;;;;;;4956242;29;20797;-52
2022/09/21 07:00:13;;;;;;;5.53;2.60;;;;;;;;;;4956442;29;20477;-54
2022/09/21 07:02:44;;;;;;;4.65;2.72;;;;;;;;;;4956454;29;20488;-52
2022/09/21 07:05:11;;;;;;;3.67;2.47;;;;;;;;;;4956245;29;20039;-50
2022/09/21 07:07:39;;;;;;;4.07;2.85;;;;;;;;;;4956300;29;20058;-50
2022/09/21 07:10:07;;;;;;;4.85;2.47;;;;;;;;;;4956055;29;20046;-52
2022/09/21 07:12:34;;;;;;;4.00;2.50;;;;;;;;;;4956135;29;20071;-53
2022/09/21 07:15:02;;;;;;;4.53;2.72;;;;;;;;;;4956265;29;20031;-53
2022/09/21 07:17:35;;;;;;;5.20;2.55;;;;;;;;;;4956054;29;20046;-51
2022/09/21 07:20:03;;;;;;;4.38;2.67;;;;;;;;;;4955798;29;20508;-48
2022/09/21 07:22:30;;;;;;;2.92;2.15;;;;;;;;;;4955829;29;20043;-51
2022/09/21 07:24:57;;;;;;;3.85;2.50;;;;;;;;;;4956036;29;20034;-50
2022/09/21 07:27:25;;;;;;;3.25;2.10;;;;;;;;;;4955898;29;20023;-50
2022/09/21 07:29:52;;;;;;;3.60;2.10;;;;;;;;;;4955831;29;20110;-55
2022/09/21 07:32:20;;;;;;;2.40;2.13;;;;;;;;;;4955761;29;20023;-54
2022/09/21 07:34:47;;;;;;;2.88;2.30;;;;;;;;;;4955830;29;20027;-52
2022/09/21 07:37:14;;;;;;;3.72;2.50;;;;;;;;;;4955688;29;20063;-52
2022/09/21 07:39:41;;;;;;;3.95;2.28;;;;;;;;;;4955623;29;20130;-53
2022/09/21 07:42:08;;;;;;;3.25;2.10;;;;;;;;;;4955611;29;20023;-51
2022/09/21 07:44:35;;;;;;;2.92;2.08;;;;;;;;;;4955666;29;20055;-52
2022/09/21 07:47:02;;;;;;;2.65;2.20;;;;;;;;;;4954302;29;20042;-54
2022/09/21 07:49:29;;;;;;;2.63;1.80;;;;;;;;;;4955440;29;20446;-50
2022/09/21 07:51:56;;;;;;;2.50;2.03;;;;;;;;;;4955501;29;20038;-52
2022/09/21 07:54:23;;;;;;;3.53;2.17;;;;;;;;;;4955443;29;20097;-50
2022/09/21 07:59:37;;;;;;;2.38;1.90;;;;;;;;;;4954087;29;20122;-52
2022/09/21 08:02:04;;;;;;;3.10;1.90;;;;;;;;;;4955285;29;20433;-51
2022/09/21 08:04:31;;;;;;;2.85;1.88;;;;;;;;;;4955208;28;20035;-49
2022/09/21 08:06:58;;;;;;;2.45;1.83;;;;;;;;;;4955218;29;20397;-52
2022/09/21 08:09:25;;;;;;;4.97;2.10;;;;;;;;;;4955167;29;20496;-53
2022/09/21 08:11:53;;;;;;;3.13;2.08;;;;;;;;;;4955218;29;20055;-51
2022/09/21 08:14:20;;;;;;;1.90;1.70;;;;;;;;;;4955141;29;20039;-52
2022/09/21 08:16:47;;;;;;;2.83;1.67;;;;;;;;;;4953781;29;20039;-53
2022/09/21 08:19:16;;;;;;;2.78;1.80;;;;;;;;;;4954936;29;20047;-53
2022/09/21 08:21:43;;;;;;;2.67;1.80;;;;;;;;;;4954724;29;20536;-51
2022/09/21 08:24:10;;;;;;;2.00;1.52;;;;;;;;;;4954985;29;20027;-48
2022/09/21 08:26:37;;;;;;;4.60;1.80;;;;;;;;;;4954984;29;20050;-50
2022/09/21 08:29:05;;;;;;;3.78;1.95;;;;;;;;;;4955010;29;20078;-51
2022/09/21 08:31:32;;;;;;;2.10;1.60;;;;;;;;;;4954676;29;20035;-50
2022/09/21 08:33:59;;;;;;;2.25;1.70;;;;;;;;;;4954846;29;20093;-51
2022/09/21 08:36:27;;;;;;;2.22;1.58;;;;;;;;;;4954582;29;20047;-52
2022/09/21 08:38:55;;;;;;;2.33;1.80;;;;;;;;;;4954801;29;20508;-50
2022/09/21 08:41:40;;;;;;;2.35;1.75;;;;;;;;;;4954625;29;20047;-52
2022/09/21 08:44:27;;;;;;;2.90;1.90;;;;;;;;;;4954795;29;20039;-48
2022/09/21 08:47:05;;;;;;;2.28;1.75;;;;;;;;;;4954688;29;20027;-50
2022/09/21 08:49:34;;;;;;;2.85;1.73;;;;;;;;;;4954646;29;20051;-52
2022/09/21 08:52:03;;;;;;;2.90;1.70;;;;;;;;;;4954662;29;20082;-52
2022/09/21 08:54:38;;;;;;;3.03;1.67;;;;;;;;;;4954602;29;20078;-51
2022/09/21 08:57:05;;;;;;;2.33;1.52;;;;;;;;;;4954752;29;20443;-49
2022/09/21 08:59:32;;;;;;;2.25;1.60;;;;;;;;;;4954541;29;20058;-50
2022/09/21 09:01:59;;;;;;;2.35;1.60;;;;;;;;;;4954536;29;20033;-54
2022/09/21 09:04:44;;;;;;;4.30;1.60;;;;;;;;;;4954595;29;20030;-55
2022/09/21 09:07:29;;;;;;;1.95;1.48;;;;;;;;;;4954571;29;20390;-50
2022/09/21 09:10:14;;;;;;;2.30;1.50;;;;;;;;;;4954443;29;20477;-50
2022/09/21 09:12:44;;;;;;;2.97;1.90;;;;;;;;;;4954458;29;20401;-48
2022/09/21 09:15:17;;;;;;;2.22;1.50;;;;;;;;;;4954424;29;20023;-51
2022/09/21 09:17:48;;;;;;;1.52;1.27;;;;;;;;;;4956097;28;20501;-50
2022/09/21 09:20:32;;;;;;;1.85;1.20;;;;;;;;;;4958184;29;20068;-51
2022/09/21 09:23:07;;;;;;;1.48;1.20;;;;;;;;;;4958026;29;20051;-49
2022/09/21 09:25:39;;;;;;;1.88;1.55;;;;;;;;;;4958130;29;20485;-51
2022/09/21 09:28:17;;;;;;;2.75;1.23;;;;;;;;;;4958122;29;20027;-51
2022/09/21 09:30:44;;;;;;;1.83;1.27;;;;;;;;;;4958020;29;20031;-53
2022/09/21 09:33:21;;;;;;;2.45;1.35;;;;;;;;;;4958063;29;20054;-51
2022/09/21 09:35:55;;;;;;;2.53;1.38;;;;;;;;;;4958255;29;20067;-50
2022/09/21 09:38:22;;;;;;;2.03;1.30;;;;;;;;;;4957758;29;20035;-52
2022/09/21 09:40:49;;;;;;;2.40;1.30;;;;;;;;;;4957666;29;20055;-52
2022/09/21 09:43:31;;;;;;;1.73;1.15;;;;;;;;;;4957899;29;20042;-52
2022/09/21 09:46:03;;;;;;;1.60;1.17;;;;;;;;;;4957889;29;20058;-48
2022/09/21 09:48:30;;;;;;;;;;;;;;;;;;4958244;29;20035;-53
2022/09/21 09:50:57;;;;;;;1.92;0.95;;;;;;;;;;4957664;29;19910;-53
2022/09/21 09:53:26;;;;;;;2.15;1.27;;;;;;;;;;4957759;29;20035;-50
2022/09/21 09:55:54;;;;;;;1.80;1.10;;;;;;;;;;4957664;29;20023;-48
2022/09/21 09:58:23;;;;;;;1.55;1.02;;;;;;;;;;4957523;29;20043;-50
2022/09/21 10:00:55;;;;;;;1.50;1.20;;;;;;;;;;4957591;29;20442;-48
2022/09/21 10:03:26;;;;;;;1.65;1.10;;;;;;;;;;4957561;29;20094;-49
2022/09/21 10:05:53;;;;;;;1.00;0.85;;;;;;;;;;4957504;29;20078;-52
2022/09/21 10:08:27;;;;;;;1.00;0.90;;;;;;;;;;4957504;29;20031;-50
2022/09/21 10:10:55;;;;;;;1.98;1.02;;;;;;;;;;4956017;29;20027;-51
2022/09/21 10:13:21;;;;;;;1.25;1.05;;;;;;;;;;4957404;29;20516;-52
2022/09/21 10:15:49;;;;;;;0.85;0.80;;;;;;;;;;4957340;29;20535;-48
2022/09/21 10:18:21;;;;;;;1.88;1.10;;;;;;;;;;4957163;29;20126;-50
2022/09/21 10:20:58;;;;;;;2.95;0.90;;;;;;;;;;4957088;29;20031;-55
2022/09/21 10:23:25;;;;;;;1.30;0.90;;;;;;;;;;4957168;29;20066;-49
2022/09/21 10:26:03;;;;;;;1.10;0.90;;;;;;;;;;4957058;29;20524;-54
2022/09/21 10:28:31;;;;;;;2.10;1.20;;;;;;;;;;4955769;28;20043;-51
2022/09/21 10:31:18;;;;;;;1.27;0.80;;;;;;;;;;4956905;29;20036;-47
2022/09/21 10:33:50;;;;;;;1.23;0.80;;;;;;;;;;4956967;29;20030;-51
2022/09/21 10:36:28;;;;;;;1.25;0.90;;;;;;;;;;4956882;29;20106;-52
2022/09/21 10:38:55;;;;;;;1.58;0.85;;;;;;;;;;4937797;29;20027;-54
2022/09/21 10:41:23;;;;;;;1.02;0.90;;;;;;;;;;4937667;29;20058;-49
2022/09/21 10:43:50;;;;;;;1.90;1.00;;;;;;;;;;4937674;29;20075;-50
2022/09/21 10:46:17;;;;;;;1.15;0.80;;;;;;;;;;4937520;29;20086;-50
2022/09/21 10:48:45;;;;;;;1.15;0.80;;;;;;;;;;4937570;29;20032;-50
2022/09/21 10:51:25;;;;;;;1.35;0.90;;;;;;;;;;4937392;29;20030;-49
2022/09/21 10:53:53;;;;;;;1.42;0.80;;;;;;;;;;4937409;29;20099;-47
2022/09/21 10:56:20;;;;;;;1.15;0.80;;;;;;;;;;4937276;29;20035;-52
2022/09/21 10:59:05;;;;;;;1.13;0.80;;;;;;;;;;4937351;29;20056;-50
2022/09/21 11:01:32;;;;;;;1.52;0.85;;;;;;;;;;4937317;29;20498;-50
2022/09/21 11:04:05;;;;;;;1.00;0.80;;;;;;;;;;4937292;29;20425;-53
2022/09/21 11:06:40;;;;;;;1.40;0.80;;;;;;;;;;4937155;29;20036;-54
2022/09/21 11:09:07;;;;;;;0.77;0.65;;;;;;;;;;4936977;29;20036;-50
2022/09/21 11:12:09;;;;;;;1.00;0.77;;;;;;;;;;4937162;29;20074;-54
2022/09/21 11:14:42;;;;;;;2.05;0.60;;;;;;;;;;4888877;29;20103;-51
2022/09/21 11:17:14;;;;;;;2.58;0.80;;;;;;;;;;4946069;29;20521;-49
2022/09/21 11:19:49;;;;;;;0.82;0.70;;;;;;;;;;4955417;29;20421;-46
2022/09/21 11:22:41;;;;;;;2.53;0.80;;;;;;;;;;4955787;29;20501;-47
2022/09/21 11:25:30;;;;;;;2.67;0.70;;;;;;;;;;4955902;29;20034;-46
2022/09/21 11:28:07;;;;;;;2.47;0.98;;;;;;;;;;4955888;29;20043;-49
2022/09/21 11:30:45;;;;;;;3.13;0.80;;;;;;;;;;4955816;29;20039;-50
2022/09/21 11:33:12;;;;;;;4.03;0.70;;;;;;;;;;4955801;29;20039;-48
2022/09/21 11:36:08;;;;;;;6.20;0.85;;;;;;;;;;4954594;29;20504;-49
2022/09/21 11:38:44;;;;;;;3.22;1.00;;;;;;;;;;4901137;29;20052;-48
2022/09/21 11:41:29;;;;;;;2.40;1.10;;;;;;;;;;4954198;28;20035;-48
2022/09/21 11:44:06;;;;;;;5.05;1.08;;;;;;;;;;4954053;29;20027;-49
2022/09/21 11:46:37;;;;;;;8.30;0.88;;;;;;;;;;4954838;29;20441;-48
2022/09/21 11:49:12;;;;;;;2.40;0.80;;;;;;;;;;4953811;29;20030;-47
2022/09/21 11:51:57;;;;;;;3.83;0.98;;;;;;;;;;4953445;29;20452;-52
2022/09/21 11:54:24;;;;;;;2.30;0.80;;;;;;;;;;4953682;29;20035;-54
2022/09/21 11:57:04;;;;;;;4.97;0.90;;;;;;;;;;4954011;29;20094;-50
2022/09/21 11:59:38;;;;;;;1.75;0.88;;;;;;;;;;4954899;29;20383;-53
2022/09/21 12:02:15;;;;;;;3.60;0.80;;;;;;;;;;4943434;29;20031;-48
2022/09/21 12:04:55;;;;;;;1.83;0.80;;;;;;;;;;4955180;29;20710;-48
2022/09/21 12:07:37;;;;;;;6.60;0.90;;;;;;;;;;4954321;29;20035;-49
2022/09/21 12:10:24;;;;;;;3.55;0.80;;;;;;;;;;4954382;29;20417;-49
2022/09/21 12:12:56;;;;;;;6.53;0.90;;;;;;;;;;4924816;29;20031;-50
2022/09/21 12:15:33;;;;;;;5.47;1.00;;;;;;;;;;4954485;29;20549;-50
2022/09/21 12:18:09;;;;;;;5.70;0.80;;;;;;;;;;4954482;29;20069;-49
2022/09/21 12:20:43;;;;;;;3.47;0.82;;;;;;;;;;4954353;29;20029;-55
2022/09/21 12:23:21;;;;;;;5.10;0.80;;;;;;;;;;4954532;29;20070;-47
2022/09/21 12:25:56;;;;;;;5.72;1.00;;;;;;;;;;4954679;29;20493;-49
2022/09/21 12:28:36;;;;;;;2.17;0.80;;;;;;;;;;4954711;29;20035;-49
2022/09/21 12:31:05;;;;;;;2.67;0.82;;;;;;;;;;4954013;29;20061;-47
2022/09/21 12:33:42;;;;;;;3.25;0.90;;;;;;;;;;4954465;29;20367;-46
2022/09/21 12:36:13;;;;;;;2.50;0.82;;;;;;;;;;4954648;29;20098;-48
2022/09/21 12:38:46;;;;;;;2.07;0.73;;;;;;;;;;4954457;29;20464;-47
2022/09/21 12:41:33;;;;;;;3.13;0.85;;;;;;;;;;4954592;29;20391;-47
2022/09/21 12:44:06;;;;;;;4.57;0.70;;;;;;;;;;4954520;29;20031;-49
2022/09/21 12:46:46;;;;;;;4.28;0.70;;;;;;;;;;4954708;29;20043;-46
2022/09/21 12:49:17;;;;;;;17.98;1.40;;;;;;;;;;4954116;29;20034;-51
2022/09/21 12:51:50;;;;;;;12.55;1.25;;;;;;;;;;4953721;28;20039;-52
2022/09/21 12:54:26;;;;;;;8.48;1.13;;;;;;;;;;4953265;29;20118;-47
2022/09/21 12:57:12;;;;;;;6.55;0.90;;;;;;;;;;4954335;29;20507;-48
2022/09/21 12:59:42;;;;;;;7.65;1.17;;;;;;;;;;4954220;29;20043;-48
2022/09/21 13:02:12;;;;;;;15.15;1.63;;;;;;;;;;4954367;29;20031;-49
2022/09/21 13:04:42;;;;;;;4.68;0.85;;;;;;;;;;4954336;29;20038;-52
2022/09/21 13:07:12;;;;;;;5.35;0.95;;;;;;;;;;4954312;29;20023;-49
2022/09/21 13:09:41;;;;;;;5.88;1.00;;;;;;;;;;4954086;29;20116;-46
2022/09/21 13:12:11;;;;;;;12.57;1.25;;;;;;;;;;4954224;29;20106;-48
2022/09/21 13:14:43;;;;;;;6.10;1.10;;;;;;;;;;4954138;29;20046;-46
2022/09/21 13:17:19;;;;;;;5.10;1.05;;;;;;;;;;4954053;29;20560;-47
2022/09/21 13:19:55;;;;;;;10.23;1.27;;;;;;;;;;4953824;29;20032;-49
2022/09/21 13:22:23;;;;;;;8.85;0.93;;;;;;;;;;4953022;28;20060;-46
2022/09/21 13:25:05;;;;;;;7.22;0.90;;;;;;;;;;4953618;28;20027;-52
2022/09/21 13:27:50;;;;;;;6.90;1.02;;;;;;;;;;4954108;29;20034;-51
2022/09/21 13:30:41;;;;;;;6.22;0.85;;;;;;;;;;4953961;29;20035;-52
2022/09/21 13:33:17;;;;;;;5.47;1.00;;;;;;;;;;4910839;29;20054;-47
2022/09/21 13:36:00;;;;;;;8.00;0.80;;;;;;;;;;4954209;29;20023;-46
2022/09/21 13:38:32;;;;;;;2.53;0.77;;;;;;;;;;4953975;29;20042;-46
2022/09/21 13:41:01;;;;;;;3.83;0.85;;;;;;;;;;4953990;29;20035;-47
2022/09/21 13:43:49;;;;;;;4.20;0.60;;;;;;;;;;4952488;29;20499;-48
2022/09/21 13:46:34;;;;;;;9.60;0.80;;;;;;;;;;4951700;29;20054;-49
2022/09/21 13:49:03;;;;;;;2.70;0.77;;;;;;;;;;4952525;29;20552;-49
2022/09/21 13:51:32;;;;;;;7.32;0.80;;;;;;;;;;4954240;29;20031;-46
2022/09/21 13:54:01;;;;;;;4.47;0.50;;;;;;;;;;4954168;29;20442;-46
2022/09/21 13:56:28;;;;;;;2.90;0.60;;;;;;;;;;4954075;29;20118;-46
2022/09/21 13:58:57;;;;;;;3.30;0.70;;;;;;;;;;4954073;29;20027;-46
2022/09/21 14:01:35;;;;;;;3.75;0.70;;;;;;;;;;4954150;29;20047;-46
2022/09/21 14:04:05;;;;;;;1.77;0.60;;;;;;;;;;4955233;28;20031;-49
2022/09/21 14:06:41;;;;;;;3.10;0.77;;;;;;;;;;4956932;29;20509;-46
2022/09/21 14:09:20;;;;;;;233.57;18.85;;;;;;;;;;4957175;29;20110;-46
2022/09/21 14:11:54;;;;;;;34.55;4.25;;;;;;;;;;4957257;29;20082;-47
2022/09/21 14:14:24;;;;;;;22.45;2.70;;;;;;;;;;4955712;29;20035;-46
2022/09/21 14:16:51;;;;;;;18.48;2.20;;;;;;;;;;4957054;29;20031;-46
2022/09/21 14:19:18;;;;;;;29.13;3.33;;;;;;;;;;4956968;29;20036;-47
2022/09/21 14:22:01;;;;;;;33.38;4.28;;;;;;;;;;4956259;29;20106;-47
2022/09/21 14:24:37;;;;;;;33.67;3.47;;;;;;;;;;4956148;29;20031;-46
2022/09/21 14:27:24;;;;;;;28.55;3.80;;;;;;;;;;4956095;29;20031;-48
2022/09/21 14:29:53;;;;;;;33.55;3.30;;;;;;;;;;4956854;29;20477;-46
2022/09/21 14:32:23;;;;;;;17.08;2.03;;;;;;;;;;4956243;29;20035;-51
2022/09/21 14:35:09;;;;;;;21.90;2.85;;;;;;;;;;4956351;29;20043;-50
2022/09/21 14:37:56;;;;;;;19.50;2.10;;;;;;;;;;4956340;29;20379;-46
2022/09/21 14:40:25;;;;;;;14.60;1.80;;;;;;;;;;4956425;29;20054;-46
2022/09/21 14:42:57;;;;;;;16.42;1.67;;;;;;;;;;4956020;29;20736;-46
2022/09/21 14:45:29;;;;;;;14.93;1.55;;;;;;;;;;4956022;29;20501;-47
2022/09/21 14:48:11;;;;;;;10.90;1.35;;;;;;;;;;4956176;29;20394;-48
2022/09/21 14:50:43;;;;;;;7.05;1.40;;;;;;;;;;4956616;29;20489;-49
2022/09/21 14:53:29;;;;;;;3.53;1.00;;;;;;;;;;4956010;29;20039;-47
2022/09/21 14:56:08;;;;;;;7.43;1.20;;;;;;;;;;4955581;29;20428;-50
2022/09/21 14:58:54;;;;;;;8.27;0.95;;;;;;;;;;4956030;29;20051;-51
2022/09/21 15:01:21;;;;;;;4.82;1.10;;;;;;;;;;4956180;29;20410;-47
2022/09/21 15:03:48;;;;;;;6.97;1.10;;;;;;;;;;4955903;29;20383;-48